createdAt,value
2019-03-09T00:02:10.039Z,98539.77
2019-03-09T00:04:38.275Z,98543.25
2019-03-09T00:07:06.468Z,98537.84
2019-03-09T00:09:34.676Z,98538.97
2019-03-09T00:12:02.767Z,98545.73
2019-03-09T00:14:31.067Z,98546.96
2019-03-09T00:16:59.208Z,98552.54
2019-03-09T00:19:27.268Z,98549.19
2019-03-09T00:21:55.409Z,98550.72
2019-03-09T00:24:45.818Z,98544.56
2019-03-09T00:27:30.324Z,98550.54
2019-03-09T00:30:24.197Z,98548.34
2019-03-09T00:32:52.528Z,98545.77
2019-03-09T00:35:20.558Z,98543.77
2019-03-09T00:37:48.687Z,98547.94
2019-03-09T00:40:16.720Z,98549.93
2019-03-09T00:42:44.698Z,98546.36
2019-03-09T00:45:13.118Z,98551.41
2019-03-09T00:47:41.414Z,98549.38
2019-03-09T00:50:10.570Z,98547.09
2019-03-09T00:52:39.824Z,98537.23
2019-03-09T00:55:09.775Z,98529.64
2019-03-09T00:57:38.223Z,98529.27
2019-03-09T01:00:11.418Z,98530.10
2019-03-09T01:02:39.527Z,98525.44
2019-03-09T01:05:09.336Z,98525.44
2019-03-09T01:07:37.578Z,98527.17
2019-03-09T01:10:08.605Z,98517.56
2019-03-09T01:12:36.722Z,98516.95
2019-03-09T01:15:05.528Z,98514.73
2019-03-09T01:17:33.715Z,98512.27
2019-03-09T01:20:03.158Z,98503.20
2019-03-09T01:22:33.577Z,98507.41
2019-03-09T01:25:01.607Z,98499.99
2019-03-09T01:27:30.699Z,98497.08
2019-03-09T01:29:59.159Z,98491.95
2019-03-09T01:32:27.305Z,98502.11
2019-03-09T01:34:56.418Z,98492.41
2019-03-09T01:37:25.667Z,98481.13
2019-03-09T01:39:54.063Z,98482.98
2019-03-09T01:42:22.069Z,98471.25
2019-03-09T01:44:50.171Z,98465.66
2019-03-09T01:47:18.588Z,98464.46
2019-03-09T01:49:46.620Z,98462.16
2019-03-09T01:52:14.770Z,98454.39
2019-03-09T01:54:43.114Z,98445.22
2019-03-09T01:57:11.220Z,98447.22
2019-03-09T01:59:39.560Z,98444.02
2019-03-09T02:02:07.627Z,98442.73
2019-03-09T02:04:35.802Z,98441.75
2019-03-09T02:07:03.840Z,98439.34
2019-03-09T02:09:32.111Z,98428.73
2019-03-09T02:12:00.154Z,98426.17
2019-03-09T02:14:28.256Z,98422.59
2019-03-09T02:16:56.730Z,98416.63
2019-03-09T02:19:25.074Z,98411.50
2019-03-09T02:21:53.136Z,98415.16
2019-03-09T02:24:21.288Z,98408.67
2019-03-09T02:26:49.409Z,98406.18
2019-03-09T02:29:17.544Z,98413.49
2019-03-09T02:31:45.714Z,98411.12
2019-03-09T02:34:14.113Z,98417.44
2019-03-09T02:36:42.270Z,98410.47
2019-03-09T02:39:28.568Z,98396.48
2019-03-09T02:41:58.559Z,98405.27
2019-03-09T02:44:26.683Z,98396.17
2019-03-09T02:46:54.866Z,98387.30
2019-03-09T02:49:22.900Z,98385.27
2019-03-09T02:51:51.079Z,98397.47
2019-03-09T02:54:19.186Z,98396.36
2019-03-09T02:56:47.296Z,98401.42
2019-03-09T02:59:15.358Z,98393.73
2019-03-09T03:02:06.137Z,98382.55
2019-03-09T03:04:36.155Z,98381.53
2019-03-09T03:07:05.289Z,98377.04
2019-03-09T03:09:35.212Z,98370.63
2019-03-09T03:12:03.378Z,98369.80
2019-03-09T03:14:31.822Z,98372.81
2019-03-09T03:17:00.194Z,98374.52
2019-03-09T03:19:28.284Z,98369.39
2019-03-09T03:21:56.489Z,98365.09
2019-03-09T03:24:24.584Z,98357.67
2019-03-09T03:26:52.549Z,98346.67
2019-03-09T03:29:20.748Z,98355.27
2019-03-09T03:31:49.185Z,98352.44
2019-03-09T03:34:17.240Z,98340.12
2019-03-09T03:36:45.233Z,98335.55
2019-03-09T03:39:13.388Z,98331.05
2019-03-09T03:41:41.514Z,98322.72
2019-03-09T03:44:09.590Z,98321.05
2019-03-09T03:46:37.701Z,98320.67
2019-03-09T03:49:05.739Z,98313.17
2019-03-09T03:51:33.752Z,98315.34
2019-03-09T03:54:01.866Z,98303.91
2019-03-09T03:56:29.959Z,98299.94
2019-03-09T03:58:57.996Z,98302.36
2019-03-09T04:01:26.127Z,98306.27
2019-03-09T04:03:54.548Z,98289.27
2019-03-09T04:06:22.658Z,98290.89
2019-03-09T04:08:50.851Z,98289.64
2019-03-09T04:11:19.305Z,98280.27
2019-03-09T04:13:47.307Z,98289.88
2019-03-09T04:16:15.370Z,98289.22
2019-03-09T04:18:43.404Z,98283.63
2019-03-09T04:21:11.720Z,98290.38
2019-03-09T04:23:40.158Z,98260.48
2019-03-09T04:26:08.586Z,98274.70
2019-03-09T04:28:36.582Z,98278.72
2019-03-09T04:31:04.657Z,98262.52
2019-03-09T04:33:32.723Z,98269.22
2019-03-09T04:36:00.695Z,98273.95
2019-03-09T04:38:28.806Z,98279.81
2019-03-09T04:40:56.955Z,98296.77
2019-03-09T04:43:24.957Z,98290.86
2019-03-09T04:45:54.066Z,98277.88
2019-03-09T04:48:22.076Z,98284.47
2019-03-09T04:50:50.014Z,98282.88
2019-03-09T04:53:18.072Z,98292.04
2019-03-09T04:55:46.145Z,98292.30
2019-03-09T04:58:14.135Z,98298.83
2019-03-09T05:00:42.115Z,98301.19
2019-03-09T05:03:10.721Z,98305.30
2019-03-09T05:05:38.838Z,98297.29
2019-03-09T05:08:46.670Z,98303.88
2019-03-09T05:11:23.779Z,98313.42
2019-03-09T05:14:22.734Z,98305.89
2019-03-09T05:16:51.042Z,98321.94
2019-03-09T05:19:19.348Z,98320.92
2019-03-09T05:21:47.440Z,98321.31
2019-03-09T05:24:15.460Z,98315.55
2019-03-09T05:26:44.950Z,98315.09
2019-03-09T05:29:13.250Z,98311.44
2019-03-09T05:31:42.325Z,98318.24
2019-03-09T05:34:10.330Z,98339.69
2019-03-09T05:36:38.372Z,98332.77
2019-03-09T05:39:06.405Z,98334.63
2019-03-09T05:41:35.556Z,98335.91
2019-03-09T05:44:03.867Z,98326.11
2019-03-09T05:46:32.016Z,98332.44
2019-03-09T05:49:00.043Z,98316.28
2019-03-09T05:51:28.212Z,98325.44
2019-03-09T05:53:56.182Z,98336.17
2019-03-09T05:56:24.492Z,98324.08
2019-03-09T05:58:52.979Z,98330.75
2019-03-09T06:01:22.097Z,98336.17
2019-03-09T06:03:50.069Z,98337.60
2019-03-09T06:06:19.210Z,98363.89
2019-03-09T06:08:49.537Z,98351.23
2019-03-09T06:11:19.677Z,98356.20
2019-03-09T06:13:47.681Z,98359.86
2019-03-09T06:16:15.653Z,98362.05
2019-03-09T06:18:43.687Z,98356.09
2019-03-09T06:21:11.738Z,98345.39
2019-03-09T06:23:39.921Z,98348.51
2019-03-09T06:26:09.121Z,98330.77
2019-03-09T06:28:37.257Z,98341.55
2019-03-09T06:31:05.351Z,98349.96
2019-03-09T06:33:35.504Z,98352.19
2019-03-09T06:36:45.683Z,98357.47
2019-03-09T06:39:30.504Z,98354.49
2019-03-09T06:42:44.326Z,98353.21
2019-03-09T06:45:14.684Z,98356.95
2019-03-09T06:47:43.046Z,98359.16
2019-03-09T06:50:14.261Z,98369.69
2019-03-09T06:52:42.373Z,98368.33
2019-03-09T06:55:11.333Z,98370.33
2019-03-09T06:57:39.389Z,98387.70
2019-03-09T07:00:40.405Z,98397.24
2019-03-09T07:03:09.304Z,98399.89
2019-03-09T07:05:37.366Z,98405.58
2019-03-09T07:08:05.431Z,98403.73
2019-03-09T07:10:34.511Z,98406.67
2019-03-09T07:13:02.665Z,98409.70
2019-03-09T07:15:33.818Z,98431.37
2019-03-09T07:18:08.724Z,98420.66
2019-03-09T07:20:37.065Z,98437.14
2019-03-09T07:23:06.769Z,98435.86
2019-03-09T07:25:35.008Z,98440.28
2019-03-09T07:28:09.859Z,98443.00
2019-03-09T07:30:37.794Z,98445.75
2019-03-09T07:33:06.224Z,98445.85
2019-03-09T07:35:34.302Z,98462.88
2019-03-09T07:38:02.305Z,98444.97
2019-03-09T07:40:31.162Z,98455.84
2019-03-09T07:42:59.506Z,98457.45
2019-03-09T07:45:27.984Z,98452.77
2019-03-09T07:47:57.010Z,98446.70
2019-03-09T07:50:25.186Z,98456.02
2019-03-09T07:52:54.628Z,98461.81
2019-03-09T07:55:22.677Z,98457.32
2019-03-09T07:57:51.135Z,98464.03
2019-03-09T08:00:19.684Z,98462.49
2019-03-09T08:02:47.764Z,98457.61
2019-03-09T08:05:15.828Z,98454.67
2019-03-09T08:07:44.272Z,98456.98
2019-03-09T08:10:14.298Z,98464.25
2019-03-09T08:12:43.763Z,98449.03
2019-03-09T08:15:14.329Z,98464.48
2019-03-09T08:17:42.511Z,98472.87
2019-03-09T08:20:10.899Z,98486.77
2019-03-09T08:22:39.013Z,98479.83
2019-03-09T08:25:08.604Z,98509.52
2019-03-09T08:27:37.318Z,98513.78
2019-03-09T08:30:12.459Z,98516.00
2019-03-09T08:32:40.489Z,98510.89
2019-03-09T08:35:08.711Z,98508.37
2019-03-09T08:37:37.895Z,98510.18
2019-03-09T08:40:08.633Z,98502.77
2019-03-09T08:42:36.818Z,98505.63
2019-03-09T08:45:05.296Z,98511.48
2019-03-09T08:47:33.402Z,98517.73
2019-03-09T08:50:01.992Z,98525.62
2019-03-09T08:52:30.184Z,98529.17
2019-03-09T08:54:58.160Z,98524.65
2019-03-09T08:57:26.422Z,98545.39
2019-03-09T08:59:54.483Z,98540.61
2019-03-09T09:02:23.489Z,98546.45
2019-03-09T09:04:52.961Z,98554.44
2019-03-09T09:07:21.337Z,98545.51
2019-03-09T09:09:49.524Z,98559.33
2019-03-09T09:12:17.974Z,98546.73
2019-03-09T09:14:46.523Z,98555.16
2019-03-09T09:17:15.039Z,98544.32
2019-03-09T09:19:43.214Z,98539.94
2019-03-09T09:22:11.338Z,98544.45
2019-03-09T09:24:40.109Z,98544.34
2019-03-09T09:27:08.136Z,98528.69
2019-03-09T09:29:36.464Z,98533.19
2019-03-09T09:32:05.728Z,98536.36
2019-03-09T09:34:34.314Z,98555.59
2019-03-09T09:37:03.000Z,98525.22
2019-03-09T09:39:31.181Z,98540.96
2019-03-09T09:41:59.731Z,98537.02
2019-03-09T09:44:29.883Z,98542.47
2019-03-09T09:46:58.328Z,98559.28
2019-03-09T09:49:26.536Z,98558.39
2019-03-09T09:51:54.721Z,98573.91
2019-03-09T09:54:23.013Z,98577.13
2019-03-09T09:56:51.780Z,98561.73
2019-03-09T09:59:19.887Z,98558.11
2019-03-09T10:01:47.902Z,98549.03
2019-03-09T10:04:16.238Z,98563.61
2019-03-09T10:06:44.156Z,98557.70
2019-03-09T10:09:12.245Z,98556.29
2019-03-09T10:11:40.460Z,98560.06
2019-03-09T10:14:10.706Z,98555.98
2019-03-09T10:16:38.736Z,98555.38
2019-03-09T10:19:06.945Z,98556.64
2019-03-09T10:21:35.014Z,98560.69
2019-03-09T10:24:03.425Z,98572.55
2019-03-09T10:26:31.540Z,98569.52
2019-03-09T10:28:59.872Z,98568.80
2019-03-09T10:31:27.995Z,98560.81
2019-03-09T10:33:56.152Z,98572.19
2019-03-09T10:36:25.563Z,98566.09
2019-03-09T10:38:54.138Z,98573.69
2019-03-09T10:41:22.550Z,98551.67
2019-03-09T10:43:51.993Z,98538.75
2019-03-09T10:46:20.074Z,98525.98
2019-03-09T10:48:48.216Z,98534.59
2019-03-09T10:51:16.190Z,98526.22
2019-03-09T10:53:44.617Z,98528.22
2019-03-09T10:56:12.758Z,98532.55
2019-03-09T10:58:41.852Z,98532.98
2019-03-09T11:01:10.213Z,98555.09
2019-03-09T11:03:38.523Z,98546.38
2019-03-09T11:06:06.553Z,98542.89
2019-03-09T11:08:35.151Z,98530.40
2019-03-09T11:11:03.485Z,98535.20
2019-03-09T11:13:31.760Z,98530.00
2019-03-09T11:15:59.942Z,98531.81
2019-03-09T11:18:28.612Z,98525.85
2019-03-09T11:20:56.971Z,98515.81
2019-03-09T11:23:25.193Z,98527.52
2019-03-09T11:25:53.330Z,98524.61
2019-03-09T11:28:22.455Z,98521.90
2019-03-09T11:30:50.600Z,98522.45
2019-03-09T11:33:18.773Z,98522.37
2019-03-09T11:35:46.851Z,98527.66
2019-03-09T11:38:14.870Z,98534.22
2019-03-09T11:40:42.902Z,98528.22
2019-03-09T11:43:10.935Z,98504.16
2019-03-09T11:45:39.262Z,98501.23
2019-03-09T11:48:07.723Z,98487.13
2019-03-09T11:50:35.780Z,98485.36
2019-03-09T11:53:04.123Z,98489.30
2019-03-09T11:55:33.418Z,98489.53
2019-03-09T11:58:01.475Z,98503.22
2019-03-09T12:00:32.244Z,98523.31
2019-03-09T12:03:00.280Z,98526.48
2019-03-09T12:05:28.507Z,98523.10
2019-03-09T12:07:56.683Z,98531.39
2019-03-09T12:10:24.727Z,98536.17
2019-03-09T12:12:52.891Z,98533.44
2019-03-09T12:15:20.939Z,98532.17
2019-03-09T12:17:50.682Z,98531.94
2019-03-09T12:20:20.352Z,98517.83
2019-03-09T12:22:48.774Z,98512.94
2019-03-09T12:25:16.852Z,98524.02
2019-03-09T12:27:44.892Z,98511.38
2019-03-09T12:30:14.625Z,98517.20
2019-03-09T12:32:43.203Z,98524.05
2019-03-09T12:35:11.255Z,98530.63
2019-03-09T12:37:39.529Z,98523.52
2019-03-09T12:40:11.328Z,98532.97
2019-03-09T12:42:39.480Z,98529.12
2019-03-09T12:45:08.974Z,98525.31
2019-03-09T12:47:37.264Z,98520.61
2019-03-09T12:50:09.911Z,98507.09
2019-03-09T12:52:38.038Z,98503.92
2019-03-09T12:55:06.256Z,98501.20
2019-03-09T12:57:34.481Z,98502.72
2019-03-09T13:00:03.749Z,98498.06
2019-03-09T13:02:31.930Z,98493.09
2019-03-09T13:04:59.800Z,98492.17
2019-03-09T13:07:28.117Z,98492.87
2019-03-09T13:09:56.175Z,98490.98
2019-03-09T13:12:24.699Z,98489.46
2019-03-09T13:14:52.791Z,98492.28
2019-03-09T13:17:21.187Z,98485.56
2019-03-09T13:19:49.422Z,98475.28
2019-03-09T13:22:19.226Z,98474.10
2019-03-09T13:24:47.204Z,98465.52
2019-03-09T13:27:17.085Z,98456.27
2019-03-09T13:29:45.126Z,98439.35
2019-03-09T13:32:14.041Z,98442.77
2019-03-09T13:34:42.393Z,98430.80
2019-03-09T13:37:10.758Z,98420.69
2019-03-09T13:39:39.023Z,98413.95
2019-03-09T13:42:07.453Z,98403.38
2019-03-09T13:44:35.649Z,98390.75
2019-03-09T13:47:04.458Z,98397.67
2019-03-09T13:49:32.852Z,98384.31
2019-03-09T13:52:02.669Z,98390.39
2019-03-09T13:54:31.313Z,98374.95
2019-03-09T13:56:59.759Z,98372.59
2019-03-09T13:59:28.178Z,98383.18
2019-03-09T14:01:57.449Z,98375.19
2019-03-09T14:04:25.920Z,98372.71
2019-03-09T14:06:54.400Z,98368.61
2019-03-09T14:09:22.429Z,98352.91
2019-03-09T14:11:50.614Z,98369.53
2019-03-09T14:14:19.712Z,98372.54
2019-03-09T14:16:47.734Z,98382.63
2019-03-09T14:19:15.795Z,98390.77
2019-03-09T14:21:44.128Z,98384.76
2019-03-09T14:24:12.442Z,98348.46
2019-03-09T14:26:40.836Z,98351.76
2019-03-09T14:29:09.306Z,98361.96
2019-03-09T14:31:37.578Z,98361.14
2019-03-09T14:34:07.168Z,98360.52
2019-03-09T14:36:36.152Z,98391.58
2019-03-09T14:39:04.872Z,98338.63
2019-03-09T14:41:35.015Z,98352.11
2019-03-09T14:44:03.309Z,98351.23
2019-03-09T14:46:31.505Z,98353.31
2019-03-09T14:48:59.948Z,98357.27
2019-03-09T14:51:28.014Z,98356.90
2019-03-09T14:53:56.134Z,98365.87
2019-03-09T14:56:24.554Z,98374.70
2019-03-09T14:58:52.986Z,98360.77
2019-03-09T15:01:21.916Z,98363.31
2019-03-09T15:03:50.489Z,98351.86
2019-03-09T15:06:18.731Z,98340.20
2019-03-09T15:08:46.856Z,98345.64
2019-03-09T15:11:15.143Z,98340.81
2019-03-09T15:13:43.188Z,98333.70
2019-03-09T15:16:11.177Z,98328.58
2019-03-09T15:18:39.266Z,98322.34
2019-03-09T15:21:07.353Z,98325.63
2019-03-09T15:23:35.974Z,98317.84
2019-03-09T15:26:04.013Z,98306.09
2019-03-09T15:28:32.172Z,98305.88
2019-03-09T15:31:00.359Z,98314.88
2019-03-09T15:33:28.436Z,98302.55
2019-03-09T15:35:56.665Z,98306.50
2019-03-09T15:38:25.088Z,98301.16
2019-03-09T15:40:53.384Z,98306.98
2019-03-09T15:43:23.391Z,98308.67
2019-03-09T15:45:51.657Z,98308.00
2019-03-09T15:48:20.933Z,98318.43
2019-03-09T15:50:49.048Z,98314.09
2019-03-09T15:53:17.118Z,98327.09
2019-03-09T15:55:45.343Z,98324.61
2019-03-09T15:58:13.418Z,98333.84
2019-03-09T16:00:43.654Z,98330.20
2019-03-09T16:03:11.688Z,98311.01
2019-03-09T16:05:39.843Z,98334.92
2019-03-09T16:08:08.069Z,98345.14
2019-03-09T16:10:36.318Z,98314.79
2019-03-09T16:13:04.632Z,98325.00
2019-03-09T16:15:33.610Z,98315.02
2019-03-09T16:18:01.788Z,98328.39
2019-03-09T16:20:29.832Z,98318.20
2019-03-09T16:22:59.705Z,98309.99
2019-03-09T16:25:28.984Z,98308.94
2019-03-09T16:27:57.355Z,98310.44
2019-03-09T16:30:25.665Z,98311.16
2019-03-09T16:32:53.693Z,98325.11
2019-03-09T16:35:26.163Z,98326.16
2019-03-09T16:37:54.839Z,98331.67
2019-03-09T16:40:24.058Z,98338.23
2019-03-09T16:42:52.180Z,98339.66
2019-03-09T16:45:20.419Z,98335.44
2019-03-09T16:47:48.510Z,98338.69
2019-03-09T16:50:18.449Z,98342.33
2019-03-09T16:52:46.636Z,98348.15
2019-03-09T16:55:14.668Z,98346.49
2019-03-09T16:57:42.796Z,98347.09
2019-03-09T17:00:17.530Z,98346.49
2019-03-09T17:02:46.007Z,98345.80
2019-03-09T17:05:14.144Z,98336.02
2019-03-09T17:07:42.253Z,98340.97
2019-03-09T17:10:10.303Z,98331.27
2019-03-09T17:12:38.500Z,98329.48
2019-03-09T17:15:08.687Z,98339.15
2019-03-09T17:17:37.706Z,98324.14
2019-03-09T17:20:08.453Z,98322.84
2019-03-09T17:22:36.826Z,98319.21
2019-03-09T17:25:06.281Z,98317.33
2019-03-09T17:27:49.441Z,98320.38
2019-03-09T17:30:17.761Z,98324.78
2019-03-09T17:32:52.510Z,98336.42
2019-03-09T17:35:20.825Z,98314.09
2019-03-09T17:37:48.911Z,98334.76
2019-03-09T17:40:16.980Z,98356.38
2019-03-09T17:42:45.137Z,98360.39
2019-03-09T17:45:16.154Z,98371.50
2019-03-09T17:47:45.395Z,98372.58
2019-03-09T17:50:13.502Z,98393.55
2019-03-09T17:52:42.185Z,98395.30
2019-03-09T17:55:10.569Z,98395.89
2019-03-09T17:57:38.818Z,98391.95
2019-03-09T18:00:14.155Z,98378.69
2019-03-09T18:02:42.246Z,98384.41
2019-03-09T18:05:10.350Z,98390.29
2019-03-09T18:07:39.578Z,98389.61
2019-03-09T18:10:19.193Z,98402.02
2019-03-09T18:12:47.323Z,98401.44
2019-03-09T18:15:15.826Z,98395.59
2019-03-09T18:17:43.984Z,98411.27
2019-03-09T18:20:12.053Z,98413.84
2019-03-09T18:22:40.484Z,98430.14
2019-03-09T18:25:08.606Z,98447.34
2019-03-09T18:27:36.657Z,98460.47
2019-03-09T18:30:04.905Z,98482.84
2019-03-09T18:32:33.178Z,98478.73
2019-03-09T18:35:01.271Z,98491.31
2019-03-09T18:37:29.427Z,98508.28
2019-03-09T18:39:57.494Z,98514.58
2019-03-09T18:42:25.642Z,98513.05
2019-03-09T18:44:53.829Z,98516.89
2019-03-09T18:47:24.270Z,98529.65
2019-03-09T18:49:52.372Z,98533.42
2019-03-09T18:52:20.752Z,98529.13
2019-03-09T18:54:48.803Z,98522.89
2019-03-09T18:57:17.000Z,98532.86
2019-03-09T18:59:46.098Z,98539.27
2019-03-09T19:02:14.120Z,98537.13
2019-03-09T19:04:42.157Z,98535.19
2019-03-09T19:07:10.370Z,98548.91
2019-03-09T19:09:39.842Z,98542.00
2019-03-09T19:12:08.145Z,98544.45
2019-03-09T19:14:36.213Z,98553.84
2019-03-09T19:17:04.625Z,98554.30
2019-03-09T19:19:32.927Z,98546.63
2019-03-09T19:22:01.042Z,98538.53
2019-03-09T19:24:29.084Z,98539.20
2019-03-09T19:26:57.496Z,98539.30
2019-03-09T19:29:25.602Z,98545.23
2019-03-09T19:31:54.877Z,98556.33
2019-03-09T19:34:23.144Z,98551.47
2019-03-09T19:36:52.352Z,98554.45
2019-03-09T19:39:20.317Z,98558.83
2019-03-09T19:41:49.509Z,98543.73
2019-03-09T19:44:17.597Z,98547.38
2019-03-09T19:46:45.773Z,98557.06
2019-03-09T19:49:13.975Z,98567.08
2019-03-09T19:51:42.278Z,98570.73
2019-03-09T19:54:10.419Z,98552.83
2019-03-09T19:56:38.700Z,98555.78
2019-03-09T19:59:06.756Z,98562.69
2019-03-09T20:01:34.873Z,98578.76
2019-03-09T20:04:02.990Z,98582.02
2019-03-09T20:06:31.233Z,98583.64
2019-03-09T20:08:59.576Z,98582.84
2019-03-09T20:11:27.831Z,98585.53
2019-03-09T20:13:55.946Z,98578.63
2019-03-09T20:16:23.994Z,98587.56
2019-03-09T20:18:52.447Z,98591.16
2019-03-09T20:21:20.486Z,98591.08
2019-03-09T20:23:48.741Z,98585.98
2019-03-09T20:26:16.821Z,98605.23
2019-03-09T20:28:46.120Z,98588.84
2019-03-09T20:31:14.405Z,98591.67
2019-03-09T20:33:42.578Z,98592.35
2019-03-09T20:36:10.548Z,98596.23
2019-03-09T20:38:38.570Z,98601.17
2019-03-09T20:41:06.769Z,98605.02
2019-03-09T20:43:34.765Z,98597.06
2019-03-09T20:46:03.314Z,98605.94
2019-03-09T20:48:31.579Z,98606.06
2019-03-09T20:50:59.992Z,98614.63
2019-03-09T20:53:28.279Z,98617.91
2019-03-09T20:55:56.431Z,98614.48
2019-03-09T20:58:24.849Z,98614.48
2019-03-09T21:00:54.564Z,98624.55
2019-03-09T21:03:23.349Z,98620.22
2019-03-09T21:05:51.605Z,98619.24
2019-03-09T21:08:19.778Z,98619.85
2019-03-09T21:10:48.180Z,98621.20
2019-03-09T21:13:17.123Z,98624.19
2019-03-09T21:15:45.148Z,98632.77
2019-03-09T21:18:13.305Z,98635.38
2019-03-09T21:20:41.706Z,98628.48
2019-03-09T21:23:09.750Z,98635.65
2019-03-09T21:25:38.027Z,98634.30
2019-03-09T21:28:06.235Z,98631.06
2019-03-09T21:30:34.590Z,98636.83
2019-03-09T21:33:02.739Z,98626.70
2019-03-09T21:35:31.840Z,98633.18
2019-03-09T21:38:00.094Z,98630.77
2019-03-09T21:40:28.373Z,98635.51
2019-03-09T21:42:56.829Z,98630.11
2019-03-09T21:45:24.993Z,98638.13
2019-03-09T21:47:53.112Z,98635.72
2019-03-09T21:50:21.242Z,98628.33
2019-03-09T21:52:49.455Z,98626.53
2019-03-09T21:55:18.012Z,98633.89
2019-03-09T21:57:46.357Z,98625.96
2019-03-09T22:00:15.105Z,98626.03
2019-03-09T22:02:45.203Z,98624.59
2019-03-09T22:05:13.389Z,98625.55
2019-03-09T22:07:41.837Z,98621.18
2019-03-09T22:10:09.997Z,98632.81
2019-03-09T22:12:38.285Z,98624.47
2019-03-09T22:15:08.988Z,98625.96
2019-03-09T22:17:37.113Z,98627.98
2019-03-09T22:20:07.451Z,98624.13
2019-03-09T22:22:36.844Z,98618.77
2019-03-09T22:25:06.895Z,98617.69
2019-03-09T22:27:35.096Z,98622.17
2019-03-09T22:30:04.019Z,98622.97
2019-03-09T22:32:32.480Z,98622.17
2019-03-09T22:35:03.952Z,98621.13
2019-03-09T22:37:32.220Z,98615.23
2019-03-09T22:40:01.747Z,98610.79
2019-03-09T22:42:30.139Z,98621.59
2019-03-09T22:45:00.351Z,98627.36
2019-03-09T22:47:28.741Z,98629.35
2019-03-09T22:49:58.354Z,98616.69
2019-03-09T22:52:26.967Z,98629.14
2019-03-09T22:54:55.594Z,98622.45
2019-03-09T22:57:23.898Z,98627.32
2019-03-09T22:59:52.101Z,98611.48
2019-03-09T23:02:20.423Z,98614.48
2019-03-09T23:04:48.711Z,98616.89
2019-03-09T23:07:20.794Z,98616.19
2019-03-09T23:09:49.022Z,98623.28
2019-03-09T23:12:17.400Z,98618.80
2019-03-09T23:14:46.597Z,98609.36
2019-03-09T23:17:15.495Z,98608.41
2019-03-09T23:19:44.361Z,98610.31
2019-03-09T23:22:13.173Z,98598.44
2019-03-09T23:24:41.218Z,98594.23
2019-03-09T23:27:10.169Z,98595.16
2019-03-09T23:29:38.419Z,98593.95
2019-03-09T23:32:06.656Z,98589.79
2019-03-09T23:34:34.998Z,98601.59
2019-03-09T23:37:04.434Z,98589.64
2019-03-09T23:39:32.573Z,98595.41
2019-03-09T23:42:00.649Z,98588.50
2019-03-09T23:44:28.934Z,98588.20
2019-03-09T23:46:57.267Z,98595.38
2019-03-09T23:49:26.985Z,98589.85
2019-03-09T23:51:59.115Z,98580.80
2019-03-09T23:54:28.430Z,98572.77
2019-03-09T23:56:58.587Z,98577.89
2019-03-09T23:59:26.708Z,98574.03
